Time;durP1;ratioP1;P1;durP2;ratioP2;P2;SDS_P1;SDS_P2;PMS_P1;PMS_P2;Temp;Humidity;BMP_temperature;BMP_pressure;BME280_temperature;BME280_humidity;BME280_pressure;Samples;Min_cycle;Max_cycle;Signal;HPM_P1;HPM_P2
2022/02/04 00:21:24;;;;;;;32.70;19.10;;;;;;;-6.49;75.12;97805.02;110381;1246;59709;-64
2022/02/04 00:23:55;;;;;;;24.10;14.40;;;;;;;-6.46;74.80;97799.77;110404;1246;59676;-65
2022/02/04 00:26:28;;;;;;;27.20;15.60;;;;;;;-6.40;74.29;97798.08;110286;1247;71498;-64
2022/02/04 00:29:43;;;;;;;25.50;16.90;;;;;;;-6.35;74.13;97802.65;110119;1247;68585;-63
2022/02/04 00:32:00;;;;;;;20.20;12.60;;;;;;;-6.28;74.10;97800.62;110150;1247;67498;-64
2022/02/04 00:34:37;;;;;;;30.40;18.80;;;;;;;-6.23;73.94;97806.22;110437;1244;59730;-65
2022/02/04 00:37:30;;;;;;;20.50;13.90;;;;;;;-6.16;75.34;97804.02;110348;1247;59675;-64
2022/02/04 00:40:10;;;;;;;23.70;14.20;;;;;;;-6.06;74.03;97801.80;110416;1246;70772;-65
2022/02/04 00:42:40;;;;;;;22.80;13.70;;;;;;;-6.03;73.94;97807.57;110328;1245;68414;-65
2022/02/04 00:45:21;;;;;;;25.90;14.60;;;;;;;-6.00;73.91;97810.45;110467;1245;69382;-64
2022/02/04 00:51:01;;;;;;;26.60;14.00;;;;;;;-6.04;75.52;97797.39;110156;1247;59689;-65
2022/02/04 00:53:41;;;;;;;22.60;13.70;;;;;;;-6.04;75.93;97789.77;110317;1246;70744;-64
2022/02/04 00:56:33;;;;;;;21.30;13.40;;;;;;;-6.04;76.39;97787.73;110107;1247;67919;-64
2022/02/04 01:27:46;;;;;;;19.90;12.10;;;;;;;-6.69;80.98;97770.24;110096;1247;68546;-65
2022/02/04 01:30:17;;;;;;;19.30;12.50;;;;;;;-6.64;80.69;97767.36;110424;1247;59685;-66
2022/02/04 01:32:47;;;;;;;24.50;13.00;;;;;;;-6.58;80.49;97769.91;110398;1246;59667;-63
2022/02/04 01:35:17;;;;;;;19.30;14.00;;;;;;;-6.50;80.07;97775.85;110355;1246;70754;-64
2022/02/04 01:37:47;;;;;;;24.10;13.10;;;;;;;-6.40;80.36;97774.33;110100;1247;68124;-64
2022/02/04 01:40:17;;;;;;;18.20;12.10;;;;;;;-6.28;78.76;97770.09;110090;1247;69387;-64
2022/02/04 01:42:47;;;;;;;24.20;14.00;;;;;;;-6.19;78.61;97768.55;110080;1247;59703;-64
2022/02/04 01:45:17;;;;;;;26.10;15.00;;;;;;;-6.10;78.79;97771.42;110264;1246;59675;-64
2022/02/04 01:47:56;;;;;;;24.60;15.30;;;;;;;-6.02;78.71;97772.95;110200;1247;70734;-64
2022/02/04 01:50:29;;;;;;;22.60;11.70;;;;;;;-5.95;78.00;97768.18;110286;1246;68622;-64
2022/02/04 01:53:01;;;;;;;20.00;11.70;;;;;;;-5.90;76.83;97769.66;110258;1246;68621;-64
2022/02/04 01:55:31;;;;;;;24.60;13.90;;;;;;;-5.88;76.71;97774.08;110240;1246;59716;-64
2022/02/04 01:58:01;;;;;;;24.10;15.10;;;;;;;-5.89;77.25;97775.77;110032;1247;59745;-64
2022/02/04 02:00:30;;;;;;;12.90;9.00;;;;;;;-5.88;77.49;97780.18;110107;1247;71582;-63
2022/02/04 02:03:01;;;;;;;21.20;11.90;;;;;;;-5.84;77.35;97778.48;110102;1247;68417;-66
2022/02/04 02:05:33;;;;;;;17.10;10.80;;;;;;;-5.80;77.28;97777.96;110357;1245;69504;-66
2022/02/04 02:08:08;;;;;;;17.80;11.20;;;;;;;-5.76;76.96;97776.95;110442;1244;59721;-65
2022/02/04 02:10:38;;;;;;;14.80;9.30;;;;;;;-5.72;76.46;97776.42;110418;1244;59689;-64
2022/02/04 02:44:39;;;;;;;19.80;11.50;;;;;;;-5.36;75.63;97781.56;110155;1247;69075;-64
2022/02/04 02:52:04;;;;;;;17.60;10.90;;;;;;;-5.28;76.39;97773.21;110334;1247;59652;-64
2022/02/04 02:57:24;;;;;;;16.10;10.70;;;;;;;-5.22;77.26;97771.16;110380;1246;68506;-66
2022/02/04 03:00:02;;;;;;;19.20;10.90;;;;;;;-5.18;76.35;97766.53;110342;1247;69433;-66
2022/02/04 03:02:33;;;;;;;21.90;14.90;;;;;;;-5.16;76.24;97770.09;110262;1247;59652;-66
2022/02/04 03:05:02;;;;;;;;;;;;;;;-5.14;75.84;97773.30;110369;1245;59716;-65
2022/02/04 03:07:32;;;;;;;13.80;9.30;;;;;;;-5.11;75.49;97769.56;110170;1247;71501;-64
2022/02/04 03:10:03;;;;;;;18.50;12.70;;;;;;;-5.09;75.34;97769.70;110362;1246;67735;-64
2022/02/04 03:12:33;;;;;;;23.70;13.20;;;;;;;-5.11;77.12;97770.07;110107;1247;68795;-64
2022/02/04 03:15:03;;;;;;;22.40;13.40;;;;;;;-5.13;77.56;97776.37;110398;1246;59725;-64
2022/02/04 03:17:33;;;;;;;19.10;12.20;;;;;;;-5.12;77.08;97780.79;110024;1247;59672;-64
2022/02/04 03:20:08;;;;;;;20.40;10.90;;;;;;;-5.11;77.37;97774.15;110254;1246;71517;-64
2022/02/04 03:22:39;;;;;;;21.00;12.70;;;;;;;-5.10;77.05;97773.48;110326;1244;68292;-64
2022/02/04 03:25:12;;;;;;;22.70;12.70;;;;;;;-5.10;77.44;97771.43;110083;1246;69783;-64
2022/02/04 03:27:48;;;;;;;18.60;12.60;;;;;;;-5.09;77.78;97768.36;110082;1247;60071;-63
2022/02/04 03:30:28;;;;;;;18.40;12.40;;;;;;;-5.07;77.43;97768.70;110326;1247;59747;-64
2022/02/04 03:33:02;;;;;;;15.00;9.90;;;;;;;-5.06;77.79;97769.88;110064;1247;71281;-63
2022/02/04 03:35:34;;;;;;;21.10;13.40;;;;;;;-5.06;77.59;97767.50;110123;1246;67667;-64
2022/02/04 03:38:04;;;;;;;14.70;9.70;;;;;;;-5.05;77.36;97767.84;110429;1246;68593;-64
2022/02/04 03:40:34;;;;;;;21.10;12.70;;;;;;;-5.04;76.47;97768.33;110466;1246;59678;-63
2022/02/04 03:43:04;;;;;;;19.70;11.60;;;;;;;-5.05;76.29;97767.49;110381;1246;59754;-64
2022/02/04 03:45:34;;;;;;;20.40;13.70;;;;;;;-5.06;76.19;97763.59;110428;1245;72057;-63
2022/02/04 03:48:04;;;;;;;;;;;;;;;-5.10;76.76;97763.61;110471;1244;67630;-64
2022/02/04 03:50:34;;;;;;;26.60;13.60;;;;;;;-5.14;76.79;97760.05;110139;1247;69401;-64
2022/02/04 03:53:09;;;;;;;;;;;;;;;-5.19;76.52;97758.72;110407;1245;59686;-64
2022/02/04 03:55:41;;;;;;;20.10;12.40;;;;;;;-5.26;76.74;97757.41;110333;1246;59763;-64
2022/02/04 03:58:12;;;;;;;21.50;12.10;;;;;;;-5.32;76.49;97750.96;110125;1246;71568;-63
2022/02/04 04:00:42;;;;;;;16.90;11.00;;;;;;;-5.35;75.93;97748.95;110128;1247;67611;-63
2022/02/04 04:03:12;;;;;;;19.50;10.60;;;;;;;-5.43;75.78;97746.77;110104;1247;68483;-64
2022/02/04 04:05:46;;;;;;;18.00;11.60;;;;;;;-5.52;76.34;97745.45;110286;1246;59666;-66
2022/02/04 04:08:18;;;;;;;23.90;16.40;;;;;;;-5.60;76.05;97745.81;110138;1247;59722;-66
2022/02/04 04:10:50;;;;;;;26.10;15.30;;;;;;;-5.71;77.11;97748.57;109839;1247;70903;-64
2022/02/04 04:13:20;;;;;;;18.60;12.00;;;;;;;-5.80;77.11;97749.61;110341;1246;68049;-63
2022/02/04 04:15:49;;;;;;;26.60;15.90;;;;;;;-5.89;77.39;97749.64;110425;1245;69299;-66
2022/02/04 04:18:18;;;;;;;26.60;15.60;;;;;;;-5.99;78.72;97751.38;110411;1245;59687;-66
2022/02/04 04:20:48;;;;;;;26.90;16.40;;;;;;;-6.09;79.38;97750.22;110084;1247;59744;-64
2022/02/04 04:23:18;;;;;;;;;;;;;;;-6.17;79.53;97751.59;110172;1247;70953;-63
2022/02/04 04:25:48;;;;;;;13.20;9.50;;;;;;;-6.22;78.34;97754.65;110120;1247;68611;-66
2022/02/04 04:28:18;;;;;;;27.60;15.40;;;;;;;-6.29;77.86;97755.50;110084;1247;68603;-65
2022/02/04 04:30:48;;;;;;;27.90;17.50;;;;;;;-6.36;78.59;97756.69;110082;1247;59689;-65
2022/02/04 04:33:18;;;;;;;23.50;15.20;;;;;;;-6.43;79.21;97755.66;110164;1246;59697;-66
2022/02/04 04:35:48;;;;;;;27.00;16.30;;;;;;;-6.48;78.86;97757.71;110475;1244;70634;-65
2022/02/04 04:41:21;;;;;;;23.20;13.20;;;;;;;-6.59;79.88;97753.45;110436;1246;68627;-64
2022/02/04 05:31:01;;;;;;;19.30;11.60;;;;;;;-7.19;82.70;97745.24;110157;1247;72228;-64
2022/02/04 05:33:30;;;;;;;19.50;10.70;;;;;;;-7.19;82.32;97743.55;110341;1246;67939;-64
2022/02/04 05:36:02;;;;;;;19.40;11.60;;;;;;;-7.19;82.37;97742.53;110066;1247;69443;-64
2022/02/04 05:38:33;;;;;;;22.00;11.80;;;;;;;-7.20;83.00;97740.52;110093;1247;59799;-64
2022/02/04 05:41:04;;;;;;;20.70;12.10;;;;;;;-7.18;83.03;97739.81;110255;1245;59687;-64
2022/02/04 05:43:38;;;;;;;22.80;14.50;;;;;;;-7.15;82.86;97742.21;110063;1247;71070;-64
2022/02/04 05:46:18;;;;;;;22.40;13.60;;;;;;;-7.13;82.57;97746.61;110303;1245;69091;-64
2022/02/04 05:48:52;;;;;;;21.90;12.20;;;;;;;-7.12;82.25;97748.80;110334;1244;69519;-64
2022/02/04 05:51:45;;;;;;;22.00;11.90;;;;;;;-7.11;82.21;97750.67;110265;1244;60488;-64
2022/02/04 05:54:43;;;;;;;18.10;11.70;;;;;;;-7.11;82.38;97746.79;110171;1245;60557;-64
2022/02/04 05:57:25;;;;;;;21.00;11.50;;;;;;;-7.08;82.15;97745.42;110092;1247;70556;-64
2022/02/04 06:00:18;;;;;;;21.90;12.70;;;;;;;-7.05;82.13;97748.50;109771;1247;68610;-64
2022/02/04 06:06:25;;;;;;;19.60;11.60;;;;;;;-6.95;82.07;97747.83;110031;1247;60569;-65
2022/02/04 06:14:23;;;;;;;15.20;9.10;;;;;;;-6.71;81.05;97753.96;110092;1246;68560;-65
2022/02/04 06:22:29;;;;;;;14.80;9.60;;;;;;;-6.45;80.11;97761.61;110051;1247;60497;-64
2022/02/04 06:24:59;;;;;;;10.40;6.80;;;;;;;-6.37;80.06;97767.04;109994;1247;72359;-64
2022/02/04 06:27:28;;;;;;;14.60;8.20;;;;;;;-6.28;79.84;97769.59;109792;1250;68615;-66
2022/02/04 06:29:57;;;;;;;12.00;7.20;;;;;;;-6.19;79.67;97768.38;110078;1247;69562;-64
2022/02/04 06:32:27;;;;;;;13.30;8.20;;;;;;;-6.07;79.14;97765.99;110043;1247;60538;-65
2022/02/04 06:34:56;;;;;;;12.70;8.30;;;;;;;-5.95;78.82;97771.40;110111;1246;60483;-65
2022/02/04 06:37:26;;;;;;;15.80;10.00;;;;;;;-5.83;78.69;97771.18;110038;1247;71600;-65
2022/02/04 06:39:55;;;;;;;23.90;12.70;;;;;;;-5.74;78.54;97773.03;110048;1247;68548;-64
2022/02/04 06:42:29;;;;;;;12.60;7.30;;;;;;;-5.69;78.30;97773.02;110101;1247;70022;-64
2022/02/04 06:44:58;;;;;;;14.30;7.90;;;;;;;-5.61;78.09;97766.71;110075;1247;60430;-65
2022/02/04 06:47:28;;;;;;;18.50;10.40;;;;;;;-5.52;77.91;97766.85;110080;1247;60470;-65
2022/02/04 06:49:57;;;;;;;14.40;8.40;;;;;;;-5.43;77.80;97765.45;110081;1245;72930;-66
2022/02/04 06:52:26;;;;;;;21.20;12.10;;;;;;;-5.34;77.49;97763.55;110105;1247;68004;-64
2022/02/04 06:54:56;;;;;;;15.10;10.40;;;;;;;-5.22;77.34;97761.29;110083;1247;69440;-64
2022/02/04 06:57:25;;;;;;;32.00;20.40;;;;;;;-5.03;77.22;97760.68;110096;1247;60571;-65
2022/02/04 06:59:54;;;;;;;24.00;16.80;;;;;;;-4.81;77.01;97763.09;110216;1247;60496;-64
2022/02/04 07:02:26;;;;;;;42.80;28.20;;;;;;;-4.54;76.96;97763.42;108987;1247;1751261;-64
2022/02/04 07:04:55;;;;;;;69.10;41.30;;;;;;;-4.24;76.76;97763.19;110435;1244;68238;-65
2022/02/04 07:07:27;;;;;;;46.40;32.50;;;;;;;-3.88;75.78;97761.33;110306;1244;69496;-65
2022/02/04 07:10:05;;;;;;;59.40;38.10;;;;;;;-3.32;76.40;97754.58;110147;1246;60464;-66
2022/02/04 07:12:40;;;;;;;67.60;40.50;;;;;;;-2.60;76.59;97755.47;110311;1246;60529;-65
2022/02/04 07:21:02;;;;;;;74.60;46.60;;;;;;;-0.21;72.73;97749.77;110210;1247;70463;-67
2022/02/04 07:23:36;;;;;;;69.50;43.10;;;;;;;0.44;72.86;97746.02;110182;1247;60541;-67
2022/02/04 07:26:05;;;;;;;90.70;59.40;;;;;;;1.10;71.87;97744.48;110031;1246;60468;-65
2022/02/04 07:28:34;;;;;;;82.00;55.80;;;;;;;1.80;71.00;97744.55;110064;1246;73073;-65
2022/02/04 07:31:05;;;;;;;68.80;44.30;;;;;;;2.45;67.80;97738.09;110186;1247;69058;-65
2022/02/04 07:34:05;;;;;;;49.90;32.20;;;;;;;3.00;63.34;97740.39;110094;1247;69951;-65
2022/02/04 07:41:43;;;;;;;45.90;32.80;;;;;;;5.06;57.56;97734.79;110115;1246;72694;-64
2022/02/04 07:44:14;;;;;;;51.60;34.10;;;;;;;5.60;55.06;97734.36;110190;1247;69043;-67
2022/02/04 07:46:43;;;;;;;44.40;28.40;;;;;;;5.97;50.16;97735.02;110183;1247;69540;-66
2022/02/04 07:49:12;;;;;;;44.80;32.00;;;;;;;6.39;52.11;97737.41;110462;1246;60467;-66
2022/02/04 07:51:41;;;;;;;81.70;59.10;;;;;;;6.89;52.26;97739.50;110386;1246;60490;-67
2022/02/04 07:54:12;;;;;;;75.50;54.50;;;;;;;7.10;42.74;97742.08;110108;1246;71676;-67
2022/02/04 07:56:43;;;;;;;73.10;52.10;;;;;;;7.35;45.97;97743.44;110099;1245;66676;-66
2022/02/04 07:59:17;;;;;;;66.60;49.10;;;;;;;7.63;47.89;97748.84;110063;1248;69909;-66
2022/02/04 08:01:53;;;;;;;64.60;48.70;;;;;;;7.71;43.70;97746.16;110223;1247;60463;-66
2022/02/04 08:04:24;;;;;;;52.20;38.60;;;;;;;7.85;42.39;97748.16;110113;1247;60551;-67
2022/02/04 08:07:06;;;;;;;51.40;38.30;;;;;;;8.00;40.63;97750.73;110058;1247;72254;-67
2022/02/04 08:12:46;;;;;;;52.20;41.00;;;;;;;8.92;37.58;97742.77;110030;1246;69518;-66
2022/02/04 08:15:49;;;;;;;42.20;31.90;;;;;;;8.70;37.37;97741.17;110093;1247;60493;-66
2022/02/04 08:32:42;;;;;;;28.40;21.10;;;;;;;9.69;35.93;97725.77;110095;1247;60482;-67
2022/02/04 08:35:45;;;;;;;25.00;18.90;;;;;;;10.22;35.64;97727.58;110018;1247;72501;-67
2022/02/04 08:47:08;;;;;;;16.80;12.90;;;;;;;10.87;32.20;97710.80;110109;1247;60929;-67
2022/02/04 08:52:58;;;;;;;15.60;12.10;;;;;;;12.03;31.97;97705.52;109990;1248;67788;-68
2022/02/04 08:55:47;;;;;;;17.20;13.60;;;;;;;11.94;29.79;97702.98;109891;1248;68654;-67
2022/02/04 09:04:12;;;;;;;11.60;8.90;;;;;;;12.91;28.82;97698.13;110038;1244;72382;-68
2022/02/04 09:07:00;;;;;;;11.00;9.40;;;;;;;13.54;29.42;97699.45;110053;1244;67899;-67
2022/02/04 09:09:49;;;;;;;11.50;9.80;;;;;;;14.12;29.02;97698.24;110004;1244;69346;-67
2022/02/04 09:20:32;;;;;;;9.80;7.80;;;;;;;15.82;28.43;97698.18;110466;1244;68724;-68
2022/02/04 09:23:04;;;;;;;11.50;8.50;;;;;;;16.35;27.52;97693.02;110533;1244;68643;-67
2022/02/04 09:25:34;;;;;;;8.90;7.40;;;;;;;16.53;25.40;97691.71;109872;1248;60550;-68
2022/02/04 09:28:05;;;;;;;10.40;8.50;;;;;;;15.76;22.75;97691.39;110224;1245;60510;-68
2022/02/04 09:30:37;;;;;;;9.60;7.70;;;;;;;15.98;25.03;97691.48;110282;1247;72297;-69
2022/02/04 09:33:14;;;;;;;9.00;7.30;;;;;;;16.24;24.82;97682.27;110170;1244;67153;-68
2022/02/04 09:35:46;;;;;;;8.90;6.90;;;;;;;16.63;25.34;97684.31;110019;1247;68832;-69
2022/02/04 09:38:17;;;;;;;11.30;8.90;;;;;;;16.41;23.77;97686.17;110235;1247;60514;-68
2022/02/04 09:40:55;;;;;;;9.10;6.90;;;;;;;16.57;24.48;97683.63;110105;1247;60611;-68
2022/02/04 09:43:29;;;;;;;10.00;8.20;;;;;;;16.24;22.07;97681.27;110078;1247;71675;-69
2022/02/04 09:46:00;;;;;;;10.50;8.20;;;;;;;15.46;22.71;97675.70;110063;1248;67854;-68
2022/02/04 09:48:32;;;;;;;6.70;5.30;;;;;;;15.01;23.86;97677.79;110170;1247;68594;-69
2022/02/04 09:51:04;;;;;;;7.20;5.20;;;;;;;16.05;25.55;97680.33;110126;1244;60610;-70
2022/02/04 10:08:15;;;;;;;8.70;6.70;;;;;;;17.54;21.55;97663.03;110091;1247;60484;-68
2022/02/04 10:12:03;;;;;;;11.30;7.90;;;;;;;17.91;21.74;97671.54;110190;1247;72207;-69
2022/02/04 10:17:15;;;;;;;9.50;7.60;;;;;;;17.92;19.70;97663.11;110030;1247;69436;-68
2022/02/04 10:22:29;;;;;;;8.60;7.20;;;;;;;15.33;21.19;97662.79;110015;1247;60440;-69
2022/02/04 10:25:03;;;;;;;10.30;8.60;;;;;;;14.95;22.88;97658.38;110086;1247;70598;-69
2022/02/04 10:27:37;;;;;;;8.80;7.20;;;;;;;15.64;21.92;97660.65;109939;1247;68489;-69
2022/02/04 10:30:13;;;;;;;8.20;6.30;;;;;;;16.21;21.75;97660.27;110368;1245;68590;-69
2022/02/04 10:32:55;;;;;;;7.60;6.70;;;;;;;15.70;21.70;97658.11;110124;1247;60529;-68
2022/02/04 10:35:33;;;;;;;10.50;7.60;;;;;;;16.68;21.64;97653.08;109972;1247;60455;-68
2022/02/04 10:38:16;;;;;;;9.00;7.00;;;;;;;17.12;21.31;97649.48;110251;1247;72416;-68
2022/02/04 10:40:56;;;;;;;13.70;8.90;;;;;;;17.15;20.83;97644.16;109989;1247;68687;-69
2022/02/04 10:46:45;;;;;;;7.90;6.90;;;;;;;16.71;20.63;97642.63;110183;1247;60527;-68
2022/02/04 11:05:33;;;;;;;13.50;11.60;;;;;;;18.16;20.31;97628.16;110147;1244;71631;-69
2022/02/04 11:31:08;;;;;;;19.10;16.00;;;;;;;19.57;20.07;97615.04;110248;1247;60466;-69
2022/02/04 11:34:25;;;;;;;23.20;19.90;;;;;;;20.12;19.62;97608.92;109957;1247;72772;-68
2022/02/04 11:54:30;;;;;;;23.20;19.90;;;;;;;22.73;17.70;97577.14;110103;1247;69460;-68
2022/02/04 11:57:05;;;;;;;8.80;7.20;;;;;;;23.03;16.80;97578.08;110061;1247;60464;-68
2022/02/04 12:00:18;;;;;;;8.80;7.20;;;;;;;22.05;14.86;97570.28;110551;1244;60557;-68
2022/02/04 12:02:52;;;;;;;7.50;6.30;;;;;;;18.19;17.41;97561.56;110249;1247;71570;-68
2022/02/04 12:05:30;;;;;;;8.20;5.80;;;;;;;17.69;18.64;97555.94;110241;1246;67694;-68
2022/02/04 12:08:21;;;;;;;6.80;5.00;;;;;;;17.44;19.78;97552.08;110064;1244;69038;-68
2022/02/04 12:11:01;;;;;;;8.40;7.50;;;;;;;16.74;19.83;97544.98;110277;1244;60548;-68
2022/02/04 12:13:54;;;;;;;6.90;5.90;;;;;;;16.34;20.24;97539.50;110132;1244;60453;-69
2022/02/04 12:16:29;;;;;;;7.60;5.90;;;;;;;15.56;20.59;97534.20;110128;1244;71610;-68
2022/02/04 12:19:08;;;;;;;9.50;8.00;;;;;;;15.00;21.24;97538.11;110067;1245;68119;-68
2022/02/04 12:21:45;;;;;;;8.90;7.40;;;;;;;14.79;22.06;97541.45;110438;1244;70117;-68
2022/02/04 12:24:33;;;;;;;10.20;8.00;;;;;;;14.57;22.28;97542.27;110620;1244;60932;-66
2022/02/04 12:27:26;;;;;;;8.60;6.50;;;;;;;14.24;22.39;97540.34;110559;1244;60461;-66
2022/02/04 12:29:57;;;;;;;8.40;6.80;;;;;;;13.83;23.14;97537.73;110101;1247;72973;-66
2022/02/04 12:32:26;;;;;;;8.90;6.70;;;;;;;13.43;23.68;97538.98;110222;1247;69198;-68
2022/02/04 12:34:55;;;;;;;10.50;7.10;;;;;;;13.01;24.02;97532.38;110276;1247;68838;-68
2022/02/04 12:37:24;;;;;;;9.20;6.50;;;;;;;12.53;24.65;97525.83;110545;1244;60547;-66
2022/02/04 12:39:53;;;;;;;11.30;9.80;;;;;;;12.21;25.23;97529.11;110429;1246;60477;-65
2022/02/04 12:42:22;;;;;;;10.50;7.80;;;;;;;11.38;25.85;97532.52;110399;1245;72910;-66
2022/02/04 12:44:52;;;;;;;8.70;6.90;;;;;;;11.28;26.19;97528.95;110337;1244;68558;-68
2022/02/04 12:47:22;;;;;;;20.40;16.20;;;;;;;11.04;27.46;97529.49;110483;1246;69842;-67
2022/02/04 12:49:56;;;;;;;21.20;17.00;;;;;;;10.51;29.35;97527.32;110518;1246;60499;-66
2022/02/04 12:55:07;;;;;;;15.30;11.90;;;;;;;9.30;31.36;97523.23;110535;1246;71743;-67
2022/02/04 13:00:37;;;;;;;24.00;16.90;;;;;;;7.89;34.80;97513.29;110471;1246;69832;-66
2022/02/04 13:03:12;;;;;;;20.30;15.10;;;;;;;6.99;36.88;97509.73;110274;1246;60543;-66
2022/02/04 13:09:21;;;;;;;17.00;13.60;;;;;;;6.72;36.59;97507.47;110363;1246;72937;-66
2022/02/04 13:11:38;;;;;;;16.20;11.20;;;;;;;6.67;36.82;97510.37;110297;1246;68221;-66
2022/02/04 13:14:07;;;;;;;22.30;17.50;;;;;;;6.66;36.62;97506.73;110229;1247;69857;-67
2022/02/04 13:16:36;;;;;;;13.70;10.40;;;;;;;6.62;37.17;97505.41;110267;1246;60561;-66
2022/02/04 13:19:06;;;;;;;13.50;10.60;;;;;;;6.64;36.70;97507.88;110267;1244;60551;-68
2022/02/04 13:21:36;;;;;;;17.10;13.70;;;;;;;6.68;36.92;97510.27;110562;1244;72740;-67
2022/02/04 13:24:07;;;;;;;15.50;11.80;;;;;;;6.72;36.95;97505.91;110589;1244;67990;-68
2022/02/04 13:26:36;;;;;;;13.10;10.00;;;;;;;6.79;36.91;97501.17;110286;1246;70000;-68
2022/02/04 13:29:06;;;;;;;17.00;12.30;;;;;;;6.93;36.83;97493.82;110520;1244;60542;-66
2022/02/04 13:31:37;;;;;;;18.80;13.60;;;;;;;6.94;36.70;97494.22;110523;1244;60577;-66
2022/02/04 13:34:10;;;;;;;14.50;10.70;;;;;;;7.06;36.44;97490.08;110485;1244;71689;-66
2022/02/04 13:36:55;;;;;;;12.90;9.80;;;;;;;7.23;36.15;97483.77;110507;1244;69285;-65
2022/02/04 13:39:48;;;;;;;15.20;10.90;;;;;;;7.33;36.44;97484.35;110550;1244;69360;-67
2022/02/04 13:42:36;;;;;;;16.50;12.60;;;;;;;7.37;36.27;97485.88;110540;1244;60527;-68
2022/02/04 13:45:31;;;;;;;19.40;13.00;;;;;;;7.39;36.56;97486.81;110585;1244;60488;-65
2022/02/04 13:48:07;;;;;;;18.20;12.70;;;;;;;7.26;36.89;97485.52;110484;1244;71874;-68
2022/02/04 13:50:48;;;;;;;14.50;9.90;;;;;;;7.37;36.45;97481.02;110209;1246;68561;-68
2022/02/04 13:53:52;;;;;;;16.10;10.60;;;;;;;7.98;35.70;97480.13;110528;1244;68480;-66
2022/02/04 13:56:33;;;;;;;12.10;8.80;;;;;;;9.10;33.60;97473.93;110487;1244;60506;-67
2022/02/04 13:59:15;;;;;;;16.40;11.30;;;;;;;10.43;31.77;97475.27;110596;1244;60541;-68
2022/02/04 14:01:55;;;;;;;14.20;10.90;;;;;;;11.33;30.40;97468.73;110569;1244;72399;-67
2022/02/04 14:04:23;;;;;;;18.10;13.50;;;;;;;11.62;29.90;97470.34;110497;1244;68434;-68
2022/02/04 14:07:08;;;;;;;15.60;10.90;;;;;;;11.19;30.09;97464.50;110499;1244;69376;-65
2022/02/04 14:09:42;;;;;;;14.80;10.70;;;;;;;10.68;30.99;97466.55;110281;1247;60534;-66
2022/02/04 14:12:20;;;;;;;18.40;13.10;;;;;;;10.18;31.59;97468.52;110493;1244;60488;-68
2022/02/04 14:15:00;;;;;;;15.40;11.60;;;;;;;9.77;32.15;97466.31;110520;1242;72060;-66
2022/02/04 14:17:31;;;;;;;23.60;17.60;;;;;;;9.48;32.82;97458.66;110288;1244;68665;-66
2022/02/04 14:20:00;;;;;;;23.20;16.90;;;;;;;9.10;33.50;97450.29;110269;1244;69992;-66
2022/02/04 14:22:29;;;;;;;23.60;17.50;;;;;;;8.69;34.12;97451.21;110508;1244;60497;-66
2022/02/04 14:25:01;;;;;;;24.50;18.20;;;;;;;8.16;35.27;97454.05;109969;1245;60485;-66
2022/02/04 14:27:30;;;;;;;21.60;15.30;;;;;;;7.65;36.21;97451.30;110314;1244;72806;-65
2022/02/04 14:30:04;;;;;;;18.40;14.80;;;;;;;7.28;36.74;97449.31;110406;1244;68359;-67
2022/02/04 14:32:51;;;;;;;20.40;14.60;;;;;;;6.91;37.53;97446.44;110537;1244;69221;-67
2022/02/04 14:49:58;;;;;;;20.00;14.30;;;;;;;4.64;42.66;97452.35;110358;1244;60822;-66
2022/02/04 15:05:46;;;;;;;22.50;15.20;;;;;;;3.57;45.68;97448.31;110508;1244;60415;-65
2022/02/04 15:08:20;;;;;;;25.60;16.10;;;;;;;3.43;45.47;97449.96;110398;1246;72820;-67
2022/02/04 15:10:49;;;;;;;;;;;;;;;3.28;46.14;97447.19;110480;1244;67806;-67
2022/02/04 15:13:18;;;;;;;19.30;12.10;;;;;;;3.15;46.13;97449.64;110480;1244;69682;-68
2022/02/04 15:15:48;;;;;;;27.60;18.80;;;;;;;3.04;46.19;97447.66;110412;1244;60487;-66
2022/02/04 15:18:17;;;;;;;19.00;12.90;;;;;;;2.92;47.52;97444.23;110511;1244;60541;-66
2022/02/04 15:20:46;;;;;;;23.80;16.40;;;;;;;2.99;48.40;97447.70;110280;1245;72881;-66
2022/02/04 15:23:16;;;;;;;13.80;9.60;;;;;;;3.02;47.50;97451.02;110510;1244;68379;-65
2022/02/04 15:25:51;;;;;;;;;;;;;;;2.98;46.63;97448.13;110515;1244;69421;-65
2022/02/04 15:30:55;;;;;;;15.70;12.10;;;;;;;2.89;46.26;97451.59;110456;1244;60484;-65
2022/02/04 15:33:28;;;;;;;18.20;13.60;;;;;;;2.81;47.09;97451.21;110348;1244;72330;-65
2022/02/04 15:35:57;;;;;;;19.20;12.10;;;;;;;2.74;47.37;97453.73;110251;1247;69318;-67
2022/02/04 15:38:27;;;;;;;20.90;15.40;;;;;;;2.70;47.98;97450.13;110496;1245;69743;-65
2022/02/04 15:40:58;;;;;;;17.30;12.10;;;;;;;2.63;47.92;97449.73;110311;1244;60482;-65
2022/02/04 15:43:30;;;;;;;14.40;10.50;;;;;;;2.61;47.59;97451.02;110370;1244;60509;-65
2022/02/04 15:51:34;;;;;;;24.20;17.30;;;;;;;2.52;47.78;97444.98;110399;1244;69906;-65
2022/02/04 16:04:29;;;;;;;19.10;14.50;;;;;;;2.32;48.66;97441.34;110184;1246;67575;-65
2022/02/04 16:06:58;;;;;;;19.30;14.00;;;;;;;2.27;49.82;97439.10;110102;1247;60904;-66
2022/02/04 16:09:27;;;;;;;23.60;19.00;;;;;;;2.18;50.83;97438.61;110474;1244;60537;-65
2022/02/04 16:15:10;;;;;;;21.30;15.60;;;;;;;1.83;52.23;97436.84;110348;1244;69197;-65
2022/02/04 16:17:38;;;;;;;30.50;20.90;;;;;;;1.63;52.96;97428.98;110571;1244;69826;-65
2022/02/04 16:20:15;;;;;;;51.80;31.30;;;;;;;1.52;53.05;97430.41;110204;1246;60569;-65
2022/02/04 16:23:09;;;;;;;65.00;40.30;;;;;;;1.47;52.09;97428.36;110153;1247;60487;-67
2022/02/04 16:28:39;;;;;;;63.90;40.30;;;;;;;1.36;52.30;97421.05;110523;1244;69189;-65
2022/02/04 16:31:11;;;;;;;49.90;31.40;;;;;;;1.32;52.99;97421.70;110439;1244;70089;-65
2022/02/04 16:33:41;;;;;;;34.90;24.60;;;;;;;1.31;52.21;97421.06;110309;1247;60515;-65
2022/02/04 16:36:15;;;;;;;34.10;24.10;;;;;;;1.28;52.38;97420.45;110498;1244;60542;-66
2022/02/04 16:38:53;;;;;;;35.80;23.40;;;;;;;1.27;51.85;97423.27;110326;1244;72145;-66
2022/02/04 16:41:31;;;;;;;28.10;18.10;;;;;;;1.22;54.18;97420.85;110429;1244;68471;-66
2022/02/04 16:44:00;;;;;;;31.80;20.00;;;;;;;1.19;52.96;97419.06;110499;1245;69434;-65
2022/02/04 16:46:29;;;;;;;25.50;17.80;;;;;;;1.10;55.81;97417.84;110581;1244;60554;-65
2022/02/04 16:48:57;;;;;;;19.00;13.30;;;;;;;0.98;55.70;97417.21;110424;1244;60882;-67
2022/02/04 16:51:26;;;;;;;18.80;12.30;;;;;;;0.96;54.36;97416.25;110549;1244;72896;-65
2022/02/04 16:53:55;;;;;;;15.90;11.10;;;;;;;0.92;55.20;97413.31;110249;1245;67998;-64
2022/02/04 16:56:25;;;;;;;17.40;11.90;;;;;;;0.87;55.40;97410.04;110487;1244;69846;-67
2022/02/04 16:58:54;;;;;;;17.40;11.10;;;;;;;0.84;55.39;97405.52;110542;1244;60474;-67
2022/02/04 17:01:23;;;;;;;13.70;8.80;;;;;;;0.85;55.10;97401.52;110427;1244;60499;-65
2022/02/04 17:03:51;;;;;;;13.00;9.40;;;;;;;0.92;53.70;97398.56;110289;1245;72914;-65
2022/02/04 17:06:21;;;;;;;16.10;10.50;;;;;;;0.97;53.28;97397.34;110271;1245;69047;-65
2022/02/04 17:08:57;;;;;;;26.80;18.40;;;;;;;1.04;52.99;97400.55;110301;1244;69203;-65
2022/02/04 17:11:40;;;;;;;47.40;27.00;;;;;;;1.09;52.76;97404.81;110378;1247;60547;-65
2022/02/04 17:14:10;;;;;;;90.90;51.30;;;;;;;1.14;52.92;97408.26;110510;1244;60855;-65
2022/02/04 17:16:42;;;;;;;;;;;;;;;1.15;54.61;97401.87;110626;1244;72128;-68
2022/02/04 17:19:13;;;;;;;65.60;39.80;;;;;;;1.19;53.62;97405.01;110571;1244;67611;-68
2022/02/04 17:21:42;;;;;;;40.00;26.20;;;;;;;1.20;53.08;97401.87;110481;1244;69872;-65
2022/02/04 17:24:14;;;;;;;32.70;24.40;;;;;;;1.19;53.03;97401.19;110319;1244;60495;-65
2022/02/04 17:26:43;;;;;;;25.70;16.60;;;;;;;1.20;52.70;97400.65;110462;1244;60463;-65
2022/02/04 17:29:13;;;;;;;35.50;24.40;;;;;;;1.22;52.15;97406.07;110476;1247;72388;-65
2022/02/04 17:31:42;;;;;;;29.90;21.50;;;;;;;1.23;52.73;97408.45;110411;1244;69011;-65
2022/02/04 17:34:13;;;;;;;31.90;23.10;;;;;;;1.22;52.94;97408.84;110360;1244;70197;-65
2022/02/04 17:36:42;;;;;;;27.40;18.40;;;;;;;1.22;53.24;97409.34;110518;1245;60547;-67
2022/02/04 17:39:19;;;;;;;31.00;21.20;;;;;;;1.23;52.32;97403.80;110534;1244;60557;-65
2022/02/04 17:41:50;;;;;;;30.80;21.10;;;;;;;1.23;52.30;97397.47;110412;1244;72095;-67